sensor_id;sensor_type;location;lat;lon;timestamp;P1;durP1;ratioP1;P2;durP2;ratioP2
50219;SDS011;36110;51.536;7.562;2023-04-25T00:00:53;5.10;;;2.97;;
50219;SDS011;36110;51.536;7.562;2023-04-25T00:03:19;2.97;;;2.25;;
50219;SDS011;36110;51.536;7.562;2023-04-25T00:05:45;13.57;;;5.20;;
50219;SDS011;36110;51.536;7.562;2023-04-25T00:08:11;2.75;;;2.22;;
50219;SDS011;36110;51.536;7.562;2023-04-25T00:10:36;2.55;;;2.33;;
50219;SDS011;36110;51.536;7.562;2023-04-25T00:13:02;3.35;;;2.10;;
50219;SDS011;36110;51.536;7.562;2023-04-25T00:15:27;8.95;;;3.85;;
50219;SDS011;36110;51.536;7.562;2023-04-25T00:17:55;3.95;;;2.40;;
50219;SDS011;36110;51.536;7.562;2023-04-25T00:20:20;4.47;;;2.40;;
50219;SDS011;36110;51.536;7.562;2023-04-25T00:22:48;2.75;;;2.55;;
50219;SDS011;36110;51.536;7.562;2023-04-25T00:25:14;2.45;;;2.05;;
50219;SDS011;36110;51.536;7.562;2023-04-25T00:27:39;3.40;;;2.25;;
50219;SDS011;36110;51.536;7.562;2023-04-25T00:30:05;8.30;;;3.40;;
50219;SDS011;36110;51.536;7.562;2023-04-25T00:32:30;10.57;;;4.47;;
50219;SDS011;36110;51.536;7.562;2023-04-25T00:34:56;3.05;;;2.47;;
50219;SDS011;36110;51.536;7.562;2023-04-25T00:37:22;2.90;;;2.33;;
50219;SDS011;36110;51.536;7.562;2023-04-25T00:39:48;2.97;;;2.40;;
50219;SDS011;36110;51.536;7.562;2023-04-25T00:42:13;3.15;;;2.25;;
50219;SDS011;36110;51.536;7.562;2023-04-25T00:44:38;8.60;;;3.47;;
50219;SDS011;36110;51.536;7.562;2023-04-25T00:47:04;4.10;;;2.45;;
50219;SDS011;36110;51.536;7.562;2023-04-25T00:49:30;9.05;;;3.88;;
50219;SDS011;36110;51.536;7.562;2023-04-25T00:51:55;7.20;;;4.32;;
50219;SDS011;36110;51.536;7.562;2023-04-25T00:54:21;3.38;;;2.42;;
50219;SDS011;36110;51.536;7.562;2023-04-25T00:56:47;7.40;;;3.55;;
50219;SDS011;36110;51.536;7.562;2023-04-25T00:59:12;3.38;;;2.60;;
50219;SDS011;36110;51.536;7.562;2023-04-25T01:01:38;3.50;;;2.63;;
50219;SDS011;36110;51.536;7.562;2023-04-25T01:04:04;4.40;;;2.60;;
50219;SDS011;36110;51.536;7.562;2023-04-25T01:06:29;17.20;;;7.55;;
50219;SDS011;36110;51.536;7.562;2023-04-25T01:08:55;7.75;;;4.40;;
50219;SDS011;36110;51.536;7.562;2023-04-25T01:11:21;4.75;;;2.97;;
50219;SDS011;36110;51.536;7.562;2023-04-25T01:13:46;5.22;;;3.95;;
50219;SDS011;36110;51.536;7.562;2023-04-25T01:16:11;4.22;;;2.97;;
50219;SDS011;36110;51.536;7.562;2023-04-25T01:18:38;3.45;;;2.60;;
50219;SDS011;36110;51.536;7.562;2023-04-25T01:21:07;2.85;;;2.47;;
50219;SDS011;36110;51.536;7.562;2023-04-25T01:23:34;2.83;;;2.60;;
50219;SDS011;36110;51.536;7.562;2023-04-25T01:26:00;5.40;;;2.80;;
50219;SDS011;36110;51.536;7.562;2023-04-25T01:28:26;3.00;;;2.70;;
50219;SDS011;36110;51.536;7.562;2023-04-25T01:30:51;8.07;;;4.20;;
50219;SDS011;36110;51.536;7.562;2023-04-25T01:33:17;4.13;;;2.63;;
50219;SDS011;36110;51.536;7.562;2023-04-25T01:35:44;4.32;;;2.80;;
50219;SDS011;36110;51.536;7.562;2023-04-25T01:38:09;3.28;;;2.85;;
50219;SDS011;36110;51.536;7.562;2023-04-25T01:40:37;4.47;;;3.00;;
50219;SDS011;36110;51.536;7.562;2023-04-25T01:43:04;5.15;;;2.88;;
50219;SDS011;36110;51.536;7.562;2023-04-25T01:45:30;4.72;;;3.85;;
50219;SDS011;36110;51.536;7.562;2023-04-25T01:47:55;3.10;;;2.65;;
50219;SDS011;36110;51.536;7.562;2023-04-25T01:50:24;3.55;;;3.15;;
50219;SDS011;36110;51.536;7.562;2023-04-25T01:52:49;3.58;;;2.63;;
50219;SDS011;36110;51.536;7.562;2023-04-25T01:55:15;5.00;;;3.03;;
50219;SDS011;36110;51.536;7.562;2023-04-25T01:57:40;4.03;;;2.30;;
50219;SDS011;36110;51.536;7.562;2023-04-25T02:00:06;5.93;;;3.85;;
50219;SDS011;36110;51.536;7.562;2023-04-25T02:02:33;2.63;;;2.35;;
50219;SDS011;36110;51.536;7.562;2023-04-25T02:04:58;3.40;;;2.88;;
50219;SDS011;36110;51.536;7.562;2023-04-25T02:07:25;4.13;;;3.17;;
50219;SDS011;36110;51.536;7.562;2023-04-25T02:09:51;7.80;;;4.43;;
50219;SDS011;36110;51.536;7.562;2023-04-25T02:12:16;3.25;;;2.70;;
50219;SDS011;36110;51.536;7.562;2023-04-25T02:14:41;7.85;;;4.25;;
50219;SDS011;36110;51.536;7.562;2023-04-25T02:17:07;3.03;;;2.72;;
50219;SDS011;36110;51.536;7.562;2023-04-25T02:19:32;5.32;;;2.80;;
50219;SDS011;36110;51.536;7.562;2023-04-25T02:21:57;4.55;;;2.80;;
50219;SDS011;36110;51.536;7.562;2023-04-25T02:24:23;7.85;;;3.70;;
50219;SDS011;36110;51.536;7.562;2023-04-25T02:26:48;3.13;;;2.47;;
50219;SDS011;36110;51.536;7.562;2023-04-25T02:29:14;4.80;;;3.00;;
50219;SDS011;36110;51.536;7.562;2023-04-25T02:31:40;3.65;;;2.60;;
50219;SDS011;36110;51.536;7.562;2023-04-25T02:34:05;3.10;;;2.60;;
50219;SDS011;36110;51.536;7.562;2023-04-25T02:36:31;3.55;;;2.60;;
50219;SDS011;36110;51.536;7.562;2023-04-25T02:38:59;3.15;;;2.72;;
50219;SDS011;36110;51.536;7.562;2023-04-25T02:41:25;8.27;;;4.45;;
50219;SDS011;36110;51.536;7.562;2023-04-25T02:43:50;3.30;;;2.92;;
50219;SDS011;36110;51.536;7.562;2023-04-25T02:46:15;2.92;;;2.60;;
50219;SDS011;36110;51.536;7.562;2023-04-25T02:48:41;3.83;;;2.88;;
50219;SDS011;36110;51.536;7.562;2023-04-25T02:51:06;5.18;;;3.65;;
50219;SDS011;36110;51.536;7.562;2023-04-25T02:53:31;3.00;;;2.70;;
50219;SDS011;36110;51.536;7.562;2023-04-25T02:55:56;4.85;;;2.67;;
50219;SDS011;36110;51.536;7.562;2023-04-25T02:58:23;4.20;;;3.55;;
50219;SDS011;36110;51.536;7.562;2023-04-25T03:00:48;15.63;;;6.78;;
50219;SDS011;36110;51.536;7.562;2023-04-25T03:03:14;4.03;;;2.80;;
50219;SDS011;36110;51.536;7.562;2023-04-25T03:05:42;10.65;;;5.50;;
50219;SDS011;36110;51.536;7.562;2023-04-25T03:08:07;7.97;;;5.43;;
50219;SDS011;36110;51.536;7.562;2023-04-25T03:10:32;8.57;;;5.07;;
50219;SDS011;36110;51.536;7.562;2023-04-25T03:12:58;4.20;;;3.25;;
50219;SDS011;36110;51.536;7.562;2023-04-25T03:15:23;2.90;;;2.53;;
50219;SDS011;36110;51.536;7.562;2023-04-25T03:17:48;3.15;;;2.85;;
50219;SDS011;36110;51.536;7.562;2023-04-25T03:20:14;2.92;;;2.70;;
50219;SDS011;36110;51.536;7.562;2023-04-25T03:22:39;6.18;;;3.78;;
50219;SDS011;36110;51.536;7.562;2023-04-25T03:25:05;6.38;;;4.35;;
50219;SDS011;36110;51.536;7.562;2023-04-25T03:27:30;5.90;;;3.70;;
50219;SDS011;36110;51.536;7.562;2023-04-25T03:29:55;4.88;;;3.53;;
50219;SDS011;36110;51.536;7.562;2023-04-25T03:32:21;4.57;;;3.47;;
50219;SDS011;36110;51.536;7.562;2023-04-25T03:34:46;4.25;;;3.05;;
50219;SDS011;36110;51.536;7.562;2023-04-25T03:37:11;4.05;;;3.05;;
50219;SDS011;36110;51.536;7.562;2023-04-25T03:39:37;4.90;;;3.20;;
50219;SDS011;36110;51.536;7.562;2023-04-25T03:42:03;4.97;;;3.50;;
50219;SDS011;36110;51.536;7.562;2023-04-25T03:44:28;4.43;;;3.10;;
50219;SDS011;36110;51.536;7.562;2023-04-25T03:46:54;4.28;;;3.15;;
50219;SDS011;36110;51.536;7.562;2023-04-25T03:49:19;8.13;;;4.68;;
50219;SDS011;36110;51.536;7.562;2023-04-25T03:51:44;9.50;;;5.05;;
50219;SDS011;36110;51.536;7.562;2023-04-25T03:54:10;4.07;;;3.15;;
50219;SDS011;36110;51.536;7.562;2023-04-25T03:56:35;5.30;;;3.53;;
50219;SDS011;36110;51.536;7.562;2023-04-25T03:59:00;6.25;;;3.33;;
50219;SDS011;36110;51.536;7.562;2023-04-25T04:01:26;4.93;;;3.00;;
50219;SDS011;36110;51.536;7.562;2023-04-25T04:03:51;3.65;;;2.90;;
50219;SDS011;36110;51.536;7.562;2023-04-25T04:06:16;7.38;;;4.68;;
50219;SDS011;36110;51.536;7.562;2023-04-25T04:08:42;4.65;;;3.03;;
50219;SDS011;36110;51.536;7.562;2023-04-25T04:11:07;7.13;;;3.50;;
50219;SDS011;36110;51.536;7.562;2023-04-25T04:13:32;9.50;;;5.50;;
50219;SDS011;36110;51.536;7.562;2023-04-25T04:15:57;4.15;;;2.90;;
50219;SDS011;36110;51.536;7.562;2023-04-25T04:18:23;3.35;;;3.03;;
50219;SDS011;36110;51.536;7.562;2023-04-25T04:20:48;4.25;;;3.03;;
50219;SDS011;36110;51.536;7.562;2023-04-25T04:23:14;4.35;;;3.20;;
50219;SDS011;36110;51.536;7.562;2023-04-25T04:25:40;3.03;;;2.60;;
50219;SDS011;36110;51.536;7.562;2023-04-25T04:28:05;3.85;;;2.97;;
50219;SDS011;36110;51.536;7.562;2023-04-25T04:30:32;3.22;;;2.72;;
50219;SDS011;36110;51.536;7.562;2023-04-25T04:32:58;3.33;;;2.72;;
50219;SDS011;36110;51.536;7.562;2023-04-25T04:35:23;5.90;;;3.33;;
50219;SDS011;36110;51.536;7.562;2023-04-25T04:37:49;11.35;;;3.70;;
50219;SDS011;36110;51.536;7.562;2023-04-25T04:40:15;4.63;;;3.30;;
50219;SDS011;36110;51.536;7.562;2023-04-25T04:42:43;3.33;;;3.03;;
50219;SDS011;36110;51.536;7.562;2023-04-25T04:45:10;4.15;;;2.97;;
50219;SDS011;36110;51.536;7.562;2023-04-25T04:47:36;3.42;;;2.95;;
50219;SDS011;36110;51.536;7.562;2023-04-25T04:50:02;6.53;;;3.10;;
50219;SDS011;36110;51.536;7.562;2023-04-25T04:52:29;3.30;;;2.80;;
50219;SDS011;36110;51.536;7.562;2023-04-25T04:54:54;3.65;;;2.80;;
50219;SDS011;36110;51.536;7.562;2023-04-25T04:57:20;3.08;;;2.78;;
50219;SDS011;36110;51.536;7.562;2023-04-25T04:59:45;2.90;;;2.65;;
50219;SDS011;36110;51.536;7.562;2023-04-25T05:02:11;4.95;;;2.92;;
50219;SDS011;36110;51.536;7.562;2023-04-25T05:04:36;3.38;;;2.85;;
50219;SDS011;36110;51.536;7.562;2023-04-25T05:07:01;4.03;;;3.00;;
50219;SDS011;36110;51.536;7.562;2023-04-25T05:09:27;3.05;;;2.40;;
50219;SDS011;36110;51.536;7.562;2023-04-25T05:11:52;3.65;;;2.70;;
50219;SDS011;36110;51.536;7.562;2023-04-25T05:14:17;4.32;;;2.80;;
50219;SDS011;36110;51.536;7.562;2023-04-25T05:16:43;2.90;;;2.58;;
50219;SDS011;36110;51.536;7.562;2023-04-25T05:19:08;3.03;;;2.60;;
50219;SDS011;36110;51.536;7.562;2023-04-25T05:21:34;8.13;;;3.20;;
50219;SDS011;36110;51.536;7.562;2023-04-25T05:23:59;3.90;;;2.60;;
50219;SDS011;36110;51.536;7.562;2023-04-25T05:26:25;7.55;;;2.83;;
50219;SDS011;36110;51.536;7.562;2023-04-25T05:28:50;2.47;;;2.28;;
50219;SDS011;36110;51.536;7.562;2023-04-25T05:31:16;3.13;;;2.55;;
50219;SDS011;36110;51.536;7.562;2023-04-25T05:33:41;2.60;;;2.40;;
50219;SDS011;36110;51.536;7.562;2023-04-25T05:36:07;3.15;;;2.70;;
50219;SDS011;36110;51.536;7.562;2023-04-25T05:38:32;4.80;;;2.78;;
50219;SDS011;36110;51.536;7.562;2023-04-25T05:40:57;3.47;;;2.78;;
50219;SDS011;36110;51.536;7.562;2023-04-25T05:43:23;3.65;;;2.80;;
50219;SDS011;36110;51.536;7.562;2023-04-25T05:45:48;5.43;;;2.60;;
50219;SDS011;36110;51.536;7.562;2023-04-25T05:48:13;3.30;;;2.63;;
50219;SDS011;36110;51.536;7.562;2023-04-25T05:50:39;4.00;;;2.40;;
50219;SDS011;36110;51.536;7.562;2023-04-25T05:53:04;3.55;;;2.60;;
50219;SDS011;36110;51.536;7.562;2023-04-25T05:55:30;3.38;;;2.47;;
50219;SDS011;36110;51.536;7.562;2023-04-25T05:57:56;3.15;;;2.30;;
50219;SDS011;36110;51.536;7.562;2023-04-25T06:00:21;2.97;;;2.47;;
50219;SDS011;36110;51.536;7.562;2023-04-25T06:02:47;2.97;;;2.45;;
50219;SDS011;36110;51.536;7.562;2023-04-25T06:05:12;6.32;;;3.13;;
50219;SDS011;36110;51.536;7.562;2023-04-25T06:07:38;2.42;;;2.15;;
50219;SDS011;36110;51.536;7.562;2023-04-25T06:10:03;6.53;;;2.83;;
50219;SDS011;36110;51.536;7.562;2023-04-25T06:12:31;6.38;;;3.22;;
50219;SDS011;36110;51.536;7.562;2023-04-25T06:14:57;2.47;;;2.20;;
50219;SDS011;36110;51.536;7.562;2023-04-25T06:17:22;4.93;;;2.63;;
50219;SDS011;36110;51.536;7.562;2023-04-25T06:19:47;4.00;;;2.30;;
50219;SDS011;36110;51.536;7.562;2023-04-25T06:22:12;3.58;;;2.40;;
50219;SDS011;36110;51.536;7.562;2023-04-25T06:24:38;5.20;;;2.95;;
50219;SDS011;36110;51.536;7.562;2023-04-25T06:27:03;6.32;;;2.58;;
50219;SDS011;36110;51.536;7.562;2023-04-25T06:29:28;3.97;;;2.13;;
50219;SDS011;36110;51.536;7.562;2023-04-25T06:31:54;2.97;;;2.45;;
50219;SDS011;36110;51.536;7.562;2023-04-25T06:34:19;6.30;;;2.33;;
50219;SDS011;36110;51.536;7.562;2023-04-25T06:36:45;15.10;;;4.57;;
50219;SDS011;36110;51.536;7.562;2023-04-25T06:39:10;14.32;;;4.63;;
50219;SDS011;36110;51.536;7.562;2023-04-25T06:41:36;15.93;;;4.95;;
50219;SDS011;36110;51.536;7.562;2023-04-25T06:44:01;16.08;;;4.60;;
50219;SDS011;36110;51.536;7.562;2023-04-25T06:46:27;15.45;;;4.28;;
50219;SDS011;36110;51.536;7.562;2023-04-25T06:48:52;17.13;;;5.10;;
50219;SDS011;36110;51.536;7.562;2023-04-25T06:51:17;14.27;;;4.20;;
50219;SDS011;36110;51.536;7.562;2023-04-25T06:53:43;15.02;;;5.53;;
50219;SDS011;36110;51.536;7.562;2023-04-25T06:56:08;12.02;;;4.40;;
50219;SDS011;36110;51.536;7.562;2023-04-25T06:58:33;21.63;;;5.72;;
50219;SDS011;36110;51.536;7.562;2023-04-25T07:00:58;15.82;;;5.03;;
50219;SDS011;36110;51.536;7.562;2023-04-25T07:03:24;14.52;;;5.20;;
50219;SDS011;36110;51.536;7.562;2023-04-25T07:05:50;11.85;;;4.32;;
50219;SDS011;36110;51.536;7.562;2023-04-25T07:08:15;11.02;;;4.22;;
50219;SDS011;36110;51.536;7.562;2023-04-25T07:10:41;15.98;;;4.47;;
50219;SDS011;36110;51.536;7.562;2023-04-25T07:13:06;14.25;;;4.07;;
50219;SDS011;36110;51.536;7.562;2023-04-25T07:15:32;20.33;;;4.60;;
50219;SDS011;36110;51.536;7.562;2023-04-25T07:17:57;12.98;;;5.20;;
50219;SDS011;36110;51.536;7.562;2023-04-25T07:20:22;18.33;;;4.68;;
50219;SDS011;36110;51.536;7.562;2023-04-25T07:22:48;18.73;;;4.35;;
50219;SDS011;36110;51.536;7.562;2023-04-25T07:25:13;16.38;;;4.55;;
50219;SDS011;36110;51.536;7.562;2023-04-25T07:27:38;12.63;;;4.50;;
50219;SDS011;36110;51.536;7.562;2023-04-25T07:30:04;16.38;;;4.20;;
50219;SDS011;36110;51.536;7.562;2023-04-25T07:32:30;12.20;;;4.10;;
50219;SDS011;36110;51.536;7.562;2023-04-25T07:34:55;12.73;;;4.63;;
50219;SDS011;36110;51.536;7.562;2023-04-25T07:37:21;17.25;;;4.53;;
50219;SDS011;36110;51.536;7.562;2023-04-25T07:39:46;8.50;;;4.47;;
50219;SDS011;36110;51.536;7.562;2023-04-25T07:42:12;16.42;;;4.60;;
50219;SDS011;36110;51.536;7.562;2023-04-25T07:44:37;11.13;;;4.18;;
50219;SDS011;36110;51.536;7.562;2023-04-25T07:47:04;17.60;;;4.13;;
50219;SDS011;36110;51.536;7.562;2023-04-25T07:49:33;12.05;;;4.70;;
50219;SDS011;36110;51.536;7.562;2023-04-25T07:52:00;15.77;;;3.88;;
50219;SDS011;36110;51.536;7.562;2023-04-25T07:54:26;9.63;;;4.47;;
50219;SDS011;36110;51.536;7.562;2023-04-25T07:56:51;10.95;;;4.20;;
50219;SDS011;36110;51.536;7.562;2023-04-25T07:59:16;12.23;;;3.65;;
50219;SDS011;36110;51.536;7.562;2023-04-25T08:01:42;12.45;;;4.60;;
50219;SDS011;36110;51.536;7.562;2023-04-25T08:04:07;18.67;;;4.50;;
50219;SDS011;36110;51.536;7.562;2023-04-25T08:06:32;9.23;;;4.47;;
50219;SDS011;36110;51.536;7.562;2023-04-25T08:08:57;16.48;;;4.38;;
50219;SDS011;36110;51.536;7.562;2023-04-25T08:11:23;14.93;;;3.90;;
50219;SDS011;36110;51.536;7.562;2023-04-25T08:13:48;9.32;;;4.25;;
50219;SDS011;36110;51.536;7.562;2023-04-25T08:16:13;12.07;;;3.42;;
50219;SDS011;36110;51.536;7.562;2023-04-25T08:18:39;9.57;;;4.47;;
50219;SDS011;36110;51.536;7.562;2023-04-25T08:21:04;10.85;;;3.67;;
50219;SDS011;36110;51.536;7.562;2023-04-25T08:23:29;8.45;;;3.60;;
50219;SDS011;36110;51.536;7.562;2023-04-25T08:25:55;7.50;;;3.75;;
50219;SDS011;36110;51.536;7.562;2023-04-25T08:28:21;7.28;;;3.75;;
50219;SDS011;36110;51.536;7.562;2023-04-25T08:30:46;15.88;;;3.40;;
50219;SDS011;36110;51.536;7.562;2023-04-25T08:33:11;8.85;;;3.83;;
50219;SDS011;36110;51.536;7.562;2023-04-25T08:35:36;9.32;;;3.33;;
50219;SDS011;36110;51.536;7.562;2023-04-25T08:38:02;8.82;;;3.88;;
50219;SDS011;36110;51.536;7.562;2023-04-25T08:40:27;7.20;;;3.47;;
50219;SDS011;36110;51.536;7.562;2023-04-25T08:42:55;9.23;;;3.40;;
50219;SDS011;36110;51.536;7.562;2023-04-25T08:45:21;17.80;;;3.33;;
50219;SDS011;36110;51.536;7.562;2023-04-25T08:47:47;15.60;;;3.75;;
50219;SDS011;36110;51.536;7.562;2023-04-25T08:50:13;17.38;;;3.95;;
50219;SDS011;36110;51.536;7.562;2023-04-25T08:52:41;11.70;;;2.97;;
50219;SDS011;36110;51.536;7.562;2023-04-25T08:55:09;12.35;;;3.05;;
50219;SDS011;36110;51.536;7.562;2023-04-25T08:57:36;14.85;;;3.65;;
50219;SDS011;36110;51.536;7.562;2023-04-25T09:00:02;11.98;;;2.90;;
50219;SDS011;36110;51.536;7.562;2023-04-25T09:02:28;15.60;;;3.38;;
50219;SDS011;36110;51.536;7.562;2023-04-25T09:04:54;11.43;;;3.05;;
50219;SDS011;36110;51.536;7.562;2023-04-25T09:07:21;5.97;;;2.85;;
50219;SDS011;36110;51.536;7.562;2023-04-25T09:09:46;10.00;;;3.05;;
50219;SDS011;36110;51.536;7.562;2023-04-25T09:12:12;10.90;;;2.92;;
50219;SDS011;36110;51.536;7.562;2023-04-25T09:14:37;11.68;;;3.42;;
50219;SDS011;36110;51.536;7.562;2023-04-25T09:17:03;11.52;;;3.00;;
50219;SDS011;36110;51.536;7.562;2023-04-25T09:19:30;11.63;;;2.83;;
50219;SDS011;36110;51.536;7.562;2023-04-25T09:21:57;10.93;;;2.58;;
50219;SDS011;36110;51.536;7.562;2023-04-25T09:24:35;7.07;;;2.30;;
50219;SDS011;36110;51.536;7.562;2023-04-25T09:27:06;9.23;;;2.60;;
50219;SDS011;36110;51.536;7.562;2023-04-25T09:29:37;8.50;;;2.50;;
50219;SDS011;36110;51.536;7.562;2023-04-25T09:32:14;8.27;;;2.30;;
50219;SDS011;36110;51.536;7.562;2023-04-25T09:34:40;9.10;;;2.65;;
50219;SDS011;36110;51.536;7.562;2023-04-25T09:37:23;7.05;;;2.38;;
50219;SDS011;36110;51.536;7.562;2023-04-25T09:39:52;7.68;;;2.50;;
50219;SDS011;36110;51.536;7.562;2023-04-25T09:42:22;5.43;;;2.40;;
50219;SDS011;36110;51.536;7.562;2023-04-25T09:44:49;6.72;;;2.75;;
50219;SDS011;36110;51.536;7.562;2023-04-25T09:47:17;7.35;;;2.40;;
50219;SDS011;36110;51.536;7.562;2023-04-25T09:49:42;5.55;;;2.35;;
50219;SDS011;36110;51.536;7.562;2023-04-25T09:52:18;11.27;;;2.63;;
50219;SDS011;36110;51.536;7.562;2023-04-25T09:54:47;8.75;;;2.33;;
50219;SDS011;36110;51.536;7.562;2023-04-25T09:59:46;7.00;;;2.45;;
50219;SDS011;36110;51.536;7.562;2023-04-25T10:02:16;6.22;;;2.38;;
50219;SDS011;36110;51.536;7.562;2023-04-25T10:04:49;9.65;;;2.92;;
50219;SDS011;36110;51.536;7.562;2023-04-25T10:07:17;6.30;;;2.25;;
50219;SDS011;36110;51.536;7.562;2023-04-25T10:09:43;5.75;;;2.20;;
50219;SDS011;36110;51.536;7.562;2023-04-25T10:12:12;7.38;;;2.40;;
50219;SDS011;36110;51.536;7.562;2023-04-25T10:14:38;8.95;;;2.25;;
50219;SDS011;36110;51.536;7.562;2023-04-25T10:17:03;6.03;;;2.05;;
50219;SDS011;36110;51.536;7.562;2023-04-25T10:19:29;9.00;;;2.17;;
50219;SDS011;36110;51.536;7.562;2023-04-25T10:24:25;5.30;;;2.25;;
50219;SDS011;36110;51.536;7.562;2023-04-25T10:26:51;4.32;;;1.83;;
50219;SDS011;36110;51.536;7.562;2023-04-25T10:29:26;4.40;;;1.80;;
50219;SDS011;36110;51.536;7.562;2023-04-25T10:31:52;7.03;;;2.10;;
50219;SDS011;36110;51.536;7.562;2023-04-25T10:34:17;4.88;;;2.10;;
50219;SDS011;36110;51.536;7.562;2023-04-25T10:36:48;5.80;;;2.63;;
50219;SDS011;36110;51.536;7.562;2023-04-25T10:39:21;6.65;;;1.75;;
50219;SDS011;36110;51.536;7.562;2023-04-25T10:41:57;7.75;;;2.03;;
50219;SDS011;36110;51.536;7.562;2023-04-25T10:44:26;9.98;;;2.65;;
50219;SDS011;36110;51.536;7.562;2023-04-25T10:46:54;8.48;;;2.30;;
50219;SDS011;36110;51.536;7.562;2023-04-25T10:54:46;4.93;;;1.88;;
50219;SDS011;36110;51.536;7.562;2023-04-25T11:00:01;4.00;;;2.20;;
50219;SDS011;36110;51.536;7.562;2023-04-25T11:02:30;4.93;;;1.90;;
50219;SDS011;36110;51.536;7.562;2023-04-25T11:04:56;6.60;;;2.05;;
50219;SDS011;36110;51.536;7.562;2023-04-25T11:10:03;5.65;;;2.25;;
50219;SDS011;36110;51.536;7.562;2023-04-25T11:12:30;5.60;;;2.25;;
50219;SDS011;36110;51.536;7.562;2023-04-25T11:15:00;6.22;;;1.80;;
50219;SDS011;36110;51.536;7.562;2023-04-25T11:17:29;4.10;;;1.60;;
50219;SDS011;36110;51.536;7.562;2023-04-25T11:19:55;5.32;;;1.70;;
50219;SDS011;36110;51.536;7.562;2023-04-25T11:22:21;3.55;;;1.80;;
50219;SDS011;36110;51.536;7.562;2023-04-25T11:24:47;3.53;;;1.60;;
50219;SDS011;36110;51.536;7.562;2023-04-25T11:27:12;3.50;;;1.92;;
50219;SDS011;36110;51.536;7.562;2023-04-25T11:29:38;3.67;;;2.00;;
50219;SDS011;36110;51.536;7.562;2023-04-25T11:32:03;3.80;;;1.58;;
50219;SDS011;36110;51.536;7.562;2023-04-25T11:34:29;8.90;;;1.80;;
50219;SDS011;36110;51.536;7.562;2023-04-25T11:36:55;8.98;;;2.00;;
50219;SDS011;36110;51.536;7.562;2023-04-25T11:39:21;3.67;;;1.65;;
50219;SDS011;36110;51.536;7.562;2023-04-25T11:41:48;3.80;;;1.63;;
50219;SDS011;36110;51.536;7.562;2023-04-25T11:44:18;5.18;;;1.90;;
50219;SDS011;36110;51.536;7.562;2023-04-25T11:46:44;6.00;;;0.88;;
50219;SDS011;36110;51.536;7.562;2023-04-25T11:49:10;9.10;;;1.88;;
50219;SDS011;36110;51.536;7.562;2023-04-25T11:51:42;2.85;;;1.17;;
50219;SDS011;36110;51.536;7.562;2023-04-25T11:54:08;3.55;;;1.60;;
50219;SDS011;36110;51.536;7.562;2023-04-25T11:56:33;11.98;;;1.98;;
50219;SDS011;36110;51.536;7.562;2023-04-25T11:59:00;5.05;;;1.60;;
50219;SDS011;36110;51.536;7.562;2023-04-25T12:01:27;7.55;;;1.58;;
50219;SDS011;36110;51.536;7.562;2023-04-25T12:03:53;2.13;;;1.30;;
50219;SDS011;36110;51.536;7.562;2023-04-25T12:06:18;6.53;;;1.50;;
50219;SDS011;36110;51.536;7.562;2023-04-25T12:09:03;6.85;;;1.40;;
50219;SDS011;36110;51.536;7.562;2023-04-25T12:11:30;4.07;;;1.60;;
50219;SDS011;36110;51.536;7.562;2023-04-25T12:14:01;4.93;;;1.60;;
50219;SDS011;36110;51.536;7.562;2023-04-25T12:16:26;7.30;;;1.50;;
50219;SDS011;36110;51.536;7.562;2023-04-25T12:18:52;5.38;;;1.48;;
50219;SDS011;36110;51.536;7.562;2023-04-25T12:21:20;38.53;;;2.17;;
50219;SDS011;36110;51.536;7.562;2023-04-25T12:23:45;6.22;;;1.20;;
50219;SDS011;36110;51.536;7.562;2023-04-25T12:26:11;7.32;;;1.50;;
50219;SDS011;36110;51.536;7.562;2023-04-25T12:28:36;2.10;;;1.10;;
50219;SDS011;36110;51.536;7.562;2023-04-25T12:31:05;3.95;;;1.40;;
50219;SDS011;36110;51.536;7.562;2023-04-25T12:33:37;3.58;;;1.27;;
50219;SDS011;36110;51.536;7.562;2023-04-25T12:36:04;5.05;;;1.15;;
50219;SDS011;36110;51.536;7.562;2023-04-25T12:38:38;4.38;;;1.23;;
50219;SDS011;36110;51.536;7.562;2023-04-25T12:41:04;4.45;;;1.08;;
50219;SDS011;36110;51.536;7.562;2023-04-25T12:43:30;3.22;;;1.40;;
50219;SDS011;36110;51.536;7.562;2023-04-25T12:45:56;2.80;;;1.00;;
50219;SDS011;36110;51.536;7.562;2023-04-25T12:48:21;4.10;;;1.40;;
50219;SDS011;36110;51.536;7.562;2023-04-25T12:50:48;4.20;;;1.13;;
50219;SDS011;36110;51.536;7.562;2023-04-25T12:53:15;5.53;;;1.50;;
50219;SDS011;36110;51.536;7.562;2023-04-25T12:55:41;4.35;;;1.08;;
50219;SDS011;36110;51.536;7.562;2023-04-25T12:58:06;2.35;;;1.02;;
50219;SDS011;36110;51.536;7.562;2023-04-25T13:00:32;1.85;;;0.70;;
50219;SDS011;36110;51.536;7.562;2023-04-25T13:02:57;4.93;;;1.25;;
50219;SDS011;36110;51.536;7.562;2023-04-25T13:05:23;1.65;;;0.80;;
50219;SDS011;36110;51.536;7.562;2023-04-25T13:07:48;2.63;;;1.00;;
50219;SDS011;36110;51.536;7.562;2023-04-25T13:10:14;3.13;;;1.00;;
50219;SDS011;36110;51.536;7.562;2023-04-25T13:12:39;3.42;;;1.30;;
50219;SDS011;36110;51.536;7.562;2023-04-25T13:15:05;3.80;;;1.02;;
50219;SDS011;36110;51.536;7.562;2023-04-25T13:17:31;2.33;;;0.85;;
50219;SDS011;36110;51.536;7.562;2023-04-25T13:19:57;2.90;;;1.08;;
50219;SDS011;36110;51.536;7.562;2023-04-25T13:22:22;2.90;;;1.00;;
50219;SDS011;36110;51.536;7.562;2023-04-25T13:24:47;2.67;;;1.02;;
50219;SDS011;36110;51.536;7.562;2023-04-25T13:27:13;4.32;;;1.20;;
50219;SDS011;36110;51.536;7.562;2023-04-25T13:29:38;3.13;;;1.20;;
50219;SDS011;36110;51.536;7.562;2023-04-25T13:32:05;7.05;;;1.50;;
50219;SDS011;36110;51.536;7.562;2023-04-25T13:34:31;5.38;;;1.30;;
50219;SDS011;36110;51.536;7.562;2023-04-25T13:36:56;8.05;;;1.30;;
50219;SDS011;36110;51.536;7.562;2023-04-25T13:39:22;4.35;;;1.35;;
50219;SDS011;36110;51.536;7.562;2023-04-25T13:41:47;5.78;;;1.50;;
50219;SDS011;36110;51.536;7.562;2023-04-25T13:44:12;4.47;;;1.15;;
50219;SDS011;36110;51.536;7.562;2023-04-25T13:46:38;4.43;;;1.10;;
50219;SDS011;36110;51.536;7.562;2023-04-25T13:49:04;7.22;;;1.73;;
50219;SDS011;36110;51.536;7.562;2023-04-25T13:51:29;3.38;;;1.27;;
50219;SDS011;36110;51.536;7.562;2023-04-25T13:53:55;6.80;;;1.52;;
50219;SDS011;36110;51.536;7.562;2023-04-25T13:56:21;2.97;;;1.40;;
50219;SDS011;36110;51.536;7.562;2023-04-25T13:58:47;6.95;;;1.30;;
50219;SDS011;36110;51.536;7.562;2023-04-25T14:01:12;4.35;;;1.38;;
50219;SDS011;36110;51.536;7.562;2023-04-25T14:03:37;4.25;;;1.40;;
50219;SDS011;36110;51.536;7.562;2023-04-25T14:06:03;3.50;;;1.20;;
50219;SDS011;36110;51.536;7.562;2023-04-25T14:08:29;6.47;;;1.75;;
50219;SDS011;36110;51.536;7.562;2023-04-25T14:10:54;3.55;;;1.25;;
50219;SDS011;36110;51.536;7.562;2023-04-25T14:13:20;4.32;;;1.30;;
50219;SDS011;36110;51.536;7.562;2023-04-25T14:15:45;2.88;;;1.30;;
50219;SDS011;36110;51.536;7.562;2023-04-25T14:18:10;3.45;;;1.10;;
50219;SDS011;36110;51.536;7.562;2023-04-25T14:20:36;7.00;;;1.40;;
50219;SDS011;36110;51.536;7.562;2023-04-25T14:23:01;5.25;;;1.52;;
50219;SDS011;36110;51.536;7.562;2023-04-25T14:25:27;7.10;;;1.52;;
50219;SDS011;36110;51.536;7.562;2023-04-25T14:27:54;2.78;;;1.33;;
50219;SDS011;36110;51.536;7.562;2023-04-25T14:30:20;3.63;;;1.20;;
50219;SDS011;36110;51.536;7.562;2023-04-25T14:32:46;4.82;;;1.42;;
50219;SDS011;36110;51.536;7.562;2023-04-25T14:35:11;4.72;;;1.50;;
50219;SDS011;36110;51.536;7.562;2023-04-25T14:37:37;3.17;;;1.13;;
50219;SDS011;36110;51.536;7.562;2023-04-25T14:40:02;4.43;;;1.20;;
50219;SDS011;36110;51.536;7.562;2023-04-25T14:42:28;6.25;;;1.30;;
50219;SDS011;36110;51.536;7.562;2023-04-25T14:44:53;2.92;;;1.00;;
50219;SDS011;36110;51.536;7.562;2023-04-25T14:47:18;3.15;;;1.20;;
50219;SDS011;36110;51.536;7.562;2023-04-25T14:49:44;3.60;;;1.55;;
50219;SDS011;36110;51.536;7.562;2023-04-25T14:52:11;2.40;;;1.00;;
50219;SDS011;36110;51.536;7.562;2023-04-25T14:54:36;3.25;;;1.20;;